Time;durP1;ratioP1;P1;durP2;ratioP2;P2;SDS_P1;SDS_P2;PMS_P1;PMS_P2;Temp;Humidity;BMP_temperature;BMP_pressure;BME280_temperature;BME280_humidity;BME280_pressure;Samples;Min_cycle;Max_cycle;Signal;HPM_P1;HPM_P2
2021/12/02 00:01:47;;;;;;;2.05;1.83;;;7.10;99.90;;;;;;5078758;28;20214;-55
2021/12/02 00:04:14;;;;;;;2.17;1.95;;;7.00;99.90;;;;;;5076483;28;20195;-55
2021/12/02 00:06:42;;;;;;;3.53;1.80;;;7.00;99.90;;;;;;5079139;28;20203;-56
2021/12/02 00:09:09;;;;;;;1.88;1.77;;;7.10;99.90;;;;;;5078793;28;20199;-53
2021/12/02 00:11:36;;;;;;;1.75;1.50;;;7.10;99.90;;;;;;5083068;28;20218;-54
2021/12/02 00:14:09;;;;;;;3.78;3.08;;;7.10;99.90;;;;;;5084110;28;20210;-53
2021/12/02 00:22:11;;;;;;;1.50;1.40;;;6.80;99.90;;;;;;5082426;28;20428;-54
2021/12/02 00:24:45;;;;;;;4.13;2.13;;;6.80;99.90;;;;;;5082945;28;20546;-57
2021/12/02 00:27:13;;;;;;;4.47;1.85;;;6.80;99.90;;;;;;5083130;28;20340;-57
2021/12/02 00:29:43;;;;;;;3.38;2.60;;;6.80;99.90;;;;;;5082393;28;20195;-55
2021/12/02 00:32:10;;;;;;;3.83;2.25;;;6.80;99.90;;;;;;5082632;28;20218;-55
2021/12/02 00:34:44;;;;;;;3.22;2.33;;;7.00;99.90;;;;;;5082766;28;20276;-56
2021/12/02 00:37:12;;;;;;;2.85;2.15;;;7.10;99.90;;;;;;5081766;28;20191;-54
2021/12/02 00:39:39;;;;;;;2.85;1.80;;;7.20;99.90;;;;;;5082478;28;20198;-57
2021/12/02 00:42:08;;;;;;;3.13;1.95;;;7.10;99.90;;;;;;5076377;28;20240;-55
2021/12/02 00:44:38;;;;;;;1.83;1.60;;;7.10;99.90;;;;;;5081487;28;20502;-57
2021/12/02 00:47:08;;;;;;;3.17;1.85;;;7.10;99.90;;;;;;5082309;28;20239;-54
2021/12/02 00:49:35;;;;;;;4.15;1.60;;;7.00;99.90;;;;;;5082676;28;20263;-55
2021/12/02 00:52:03;;;;;;;1.50;1.38;;;7.00;99.90;;;;;;5085786;28;20256;-59
2021/12/02 00:54:31;;;;;;;1.60;1.20;;;7.00;99.90;;;;;;5085433;28;20318;-53
2021/12/02 00:57:02;;;;;;;2.40;1.65;;;7.20;99.90;;;;;;5071446;28;20198;-53
2021/12/02 00:59:29;;;;;;;1.42;1.30;;;7.20;99.90;;;;;;5085786;28;20731;-53
2021/12/02 01:01:58;;;;;;;1.60;1.50;;;7.40;99.90;;;;;;5077534;28;20528;-56
2021/12/02 01:04:26;;;;;;;1.48;1.10;;;7.50;99.90;;;;;;5082469;28;20199;-54
2021/12/02 01:06:54;;;;;;;3.67;1.80;;;7.50;99.90;;;;;;5082260;28;20246;-54
2021/12/02 01:09:21;;;;;;;2.13;1.30;;;7.70;99.90;;;;;;5077088;28;20385;-57
2021/12/02 01:11:50;;;;;;;1.40;1.27;;;7.70;99.90;;;;;;5081803;28;20260;-52
2021/12/02 01:14:17;;;;;;;1.85;1.35;;;7.60;99.90;;;;;;5082044;28;20194;-54
2021/12/02 01:16:44;;;;;;;1.48;1.38;;;7.60;99.90;;;;;;5079914;28;20199;-53
2021/12/02 01:19:12;;;;;;;2.15;1.63;;;7.50;99.90;;;;;;5081879;28;20231;-54
2021/12/02 01:21:42;;;;;;;2.15;1.52;;;7.60;99.90;;;;;;5082390;28;20260;-56
2021/12/02 01:24:11;;;;;;;1.23;1.13;;;7.80;99.90;;;;;;5083193;28;20207;-52
2021/12/02 01:26:39;;;;;;;3.47;2.60;;;8.00;99.90;;;;;;5082388;28;20195;-57
2021/12/02 01:29:06;;;;;;;2.75;2.10;;;8.00;99.90;;;;;;5082912;28;20252;-53
2021/12/02 01:31:36;;;;;;;1.50;1.35;;;8.00;99.90;;;;;;5078262;28;20511;-53
2021/12/02 01:34:08;;;;;;;2.90;1.75;;;8.10;99.90;;;;;;5080962;28;20203;-55
2021/12/02 01:36:40;;;;;;;6.20;3.80;;;8.20;99.90;;;;;;5082056;28;20237;-57
2021/12/02 01:39:08;;;;;;;2.28;1.20;;;8.30;99.90;;;;;;5081228;28;20566;-55
2021/12/02 01:41:57;;;;;;;1.80;0.77;;;8.20;99.90;;;;;;5081387;28;20291;-55
2021/12/02 01:44:26;;;;;;;1.17;1.13;;;8.10;99.90;;;;;;5080197;28;20195;-54
2021/12/02 01:46:57;;;;;;;1.27;0.85;;;8.00;99.90;;;;;;5081600;28;20199;-54
2021/12/02 01:49:32;;;;;;;0.63;0.60;;;7.80;99.90;;;;;;5081951;28;20203;-56
2021/12/02 01:52:01;;;;;;;0.40;0.40;;;7.50;99.90;;;;;;5079257;28;20594;-56
2021/12/02 01:54:28;;;;;;;1.25;0.70;;;7.30;99.90;;;;;;5083151;28;20473;-55
2021/12/02 01:57:05;;;;;;;0.68;0.68;;;7.20;99.90;;;;;;5082563;28;20268;-53
2021/12/02 01:59:35;;;;;;;1.15;0.50;;;7.30;99.90;;;;;;5079508;28;20295;-55
2021/12/02 02:02:09;;;;;;;0.47;0.45;;;7.30;99.90;;;;;;5075164;28;20203;-52
2021/12/02 02:04:38;;;;;;;0.40;0.38;;;7.40;99.90;;;;;;5081543;28;20434;-56
2021/12/02 02:07:11;;;;;;;0.65;0.65;;;7.30;99.90;;;;;;5083100;28;20203;-55
2021/12/02 02:09:38;;;;;;;0.30;0.30;;;7.30;99.90;;;;;;5081883;28;20229;-55
2021/12/02 02:12:09;;;;;;;2.05;1.45;;;7.30;99.90;;;;;;5068577;28;20466;-58
2021/12/02 02:14:39;;;;;;;1.02;1.02;;;7.30;99.90;;;;;;5088265;28;20202;-58
2021/12/02 02:17:31;;;;;;;0.43;0.43;;;7.30;99.90;;;;;;5081944;28;20198;-57
2021/12/02 02:19:55;;;;;;;0.52;0.52;;;7.40;99.90;;;;;;5080430;28;20272;-52
2021/12/02 02:22:23;;;;;;;1.75;0.50;;;7.50;99.90;;;;;;5079511;28;20203;-53
2021/12/02 02:24:51;;;;;;;0.60;0.60;;;7.50;99.90;;;;;;5080114;28;20437;-52
2021/12/02 02:27:20;;;;;;;0.60;0.47;;;7.40;99.90;;;;;;5077538;28;20196;-53
2021/12/02 02:29:47;;;;;;;0.70;0.70;;;7.30;99.90;;;;;;5080731;28;20221;-55
2021/12/02 02:32:14;;;;;;;0.40;0.40;;;7.20;99.90;;;;;;5079565;28;20207;-55
2021/12/02 02:34:42;;;;;;;0.77;0.70;;;7.10;99.90;;;;;;5088964;28;20233;-59
2021/12/02 02:37:09;;;;;;;1.75;0.60;;;7.20;99.90;;;;;;5091143;28;20206;-55
2021/12/02 02:39:38;;;;;;;0.90;0.75;;;7.10;99.90;;;;;;5080563;28;20242;-55
2021/12/02 02:42:08;;;;;;;0.60;0.50;;;7.00;99.90;;;;;;5081473;28;20215;-53
2021/12/02 02:44:36;;;;;;;1.25;0.50;;;6.90;99.90;;;;;;5082751;28;20199;-55
2021/12/02 02:47:04;;;;;;;0.57;0.57;;;6.90;99.90;;;;;;5084425;28;20195;-55
2021/12/02 02:49:31;;;;;;;0.68;0.50;;;7.00;99.90;;;;;;5082219;28;20206;-56
2021/12/02 02:51:58;;;;;;;0.60;0.60;;;7.10;99.90;;;;;;5079754;28;20219;-54
2021/12/02 02:54:26;;;;;;;1.00;0.57;;;7.10;99.90;;;;;;5080450;28;20456;-52
2021/12/02 02:57:09;;;;;;;0.50;0.50;;;7.00;99.90;;;;;;5076962;28;20458;-57
2021/12/02 03:07:43;;;;;;;1.25;0.70;;;6.80;99.90;;;;;;5080296;28;20218;-54
2021/12/02 03:12:42;;;;;;;0.55;0.55;;;6.50;99.90;;;;;;5079484;28;20202;-54
2021/12/02 03:17:37;;;;;;;0.70;0.60;;;6.10;99.90;;;;;;5079696;28;20198;-58
2021/12/02 03:20:05;;;;;;;0.95;0.88;;;6.10;99.90;;;;;;5079895;28;20454;-53
2021/12/02 03:22:33;;;;;;;0.60;0.60;;;6.00;99.90;;;;;;5079577;28;20429;-56
2021/12/02 03:25:02;;;;;;;0.40;0.40;;;6.00;99.90;;;;;;5077367;28;20195;-57
2021/12/02 03:27:30;;;;;;;0.60;0.60;;;5.90;99.90;;;;;;5079008;28;20198;-56
2021/12/02 03:29:57;;;;;;;0.57;0.57;;;5.90;99.90;;;;;;5079129;28;20444;-56
2021/12/02 03:32:24;;;;;;;0.80;0.60;;;5.80;99.90;;;;;;5061932;28;20202;-53
2021/12/02 03:34:53;;;;;;;1.15;0.80;;;6.00;99.90;;;;;;5079543;28;20213;-54
2021/12/02 03:37:20;;;;;;;3.13;0.68;;;5.90;99.90;;;;;;5079394;28;20236;-55
2021/12/02 03:39:47;;;;;;;2.30;0.88;;;5.90;99.90;;;;;;5074527;28;20233;-54
2021/12/02 03:42:15;;;;;;;0.57;0.57;;;6.00;99.90;;;;;;5079585;28;20195;-57
2021/12/02 03:44:42;;;;;;;0.68;0.63;;;6.10;99.90;;;;;;5076821;28;20534;-54
2021/12/02 03:47:09;;;;;;;1.00;0.93;;;6.20;99.90;;;;;;5076925;28;20236;-56
2021/12/02 03:49:36;;;;;;;0.95;0.95;;;6.40;99.90;;;;;;5079133;28;20199;-54
2021/12/02 03:52:04;;;;;;;0.60;0.60;;;6.40;99.90;;;;;;5079243;28;20222;-56
2021/12/02 03:54:31;;;;;;;0.95;0.90;;;6.50;99.90;;;;;;5072924;28;20199;-57
2021/12/02 03:56:59;;;;;;;0.80;0.80;;;6.60;99.90;;;;;;5079532;28;20202;-53
2021/12/02 03:59:26;;;;;;;1.35;1.35;;;6.60;99.90;;;;;;5078666;28;20457;-55
2021/12/02 04:01:54;;;;;;;1.23;0.93;;;6.50;99.90;;;;;;5079233;28;20230;-53
2021/12/02 04:04:21;;;;;;;0.88;0.82;;;6.40;99.90;;;;;;5072804;28;20199;-56
2021/12/02 04:06:48;;;;;;;1.10;0.65;;;6.30;99.90;;;;;;5079267;28;20215;-53
2021/12/02 04:09:19;;;;;;;0.60;0.60;;;6.10;99.90;;;;;;5076361;28;20198;-58
2021/12/02 04:16:51;;;;;;;0.85;0.70;;;5.70;99.90;;;;;;5085374;28;20220;-53
2021/12/02 04:19:19;;;;;;;4.35;2.45;;;5.60;99.90;;;;;;5079285;28;20256;-53
2021/12/02 04:21:46;;;;;;;0.90;0.60;;;5.50;99.90;;;;;;5070289;28;20265;-55
2021/12/02 04:24:14;;;;;;;1.85;0.95;;;5.50;99.90;;;;;;5078918;28;20492;-54
2021/12/02 04:26:43;;;;;;;1.10;1.00;;;5.50;99.90;;;;;;5078762;28;20533;-55
2021/12/02 04:29:11;;;;;;;1.40;0.82;;;5.40;99.90;;;;;;5077148;28;20390;-53
2021/12/02 04:31:47;;;;;;;3.53;1.50;;;5.40;99.90;;;;;;5078414;28;20234;-55
2021/12/02 04:34:15;;;;;;;0.77;0.77;;;5.30;99.90;;;;;;5076887;28;20465;-56
2021/12/02 04:36:43;;;;;;;0.90;0.77;;;5.20;99.90;;;;;;5079153;28;20544;-56
2021/12/02 04:39:13;;;;;;;0.65;0.65;;;5.20;99.90;;;;;;5078476;28;20275;-56
2021/12/02 04:41:40;;;;;;;0.63;0.63;;;5.20;99.90;;;;;;5078402;28;20246;-55
2021/12/02 04:44:07;;;;;;;0.60;0.50;;;5.20;99.90;;;;;;5078704;28;20230;-56
2021/12/02 04:46:35;;;;;;;0.70;0.70;;;5.20;99.90;;;;;;5078368;28;20248;-56
2021/12/02 04:49:02;;;;;;;1.55;0.82;;;5.20;99.90;;;;;;5077916;28;20199;-56
2021/12/02 04:51:30;;;;;;;0.50;0.50;;;5.20;99.90;;;;;;5078343;28;20293;-55
2021/12/02 04:53:57;;;;;;;1.00;1.00;;;5.20;99.90;;;;;;5078330;28;20199;-53
2021/12/02 04:56:24;;;;;;;0.60;0.60;;;5.20;99.90;;;;;;5079163;28;20493;-56
2021/12/02 04:58:52;;;;;;;1.10;1.00;;;5.10;99.90;;;;;;5082228;28;20226;-55
2021/12/02 05:01:19;;;;;;;2.25;0.80;;;5.00;99.90;;;;;;5075561;28;20219;-51
2021/12/02 05:03:50;;;;;;;2.90;1.02;;;5.00;99.90;;;;;;5081829;28;20213;-56
2021/12/02 05:06:19;;;;;;;0.80;0.73;;;5.00;99.90;;;;;;5060110;28;20199;-55
2021/12/02 05:08:47;;;;;;;0.60;0.60;;;4.80;99.90;;;;;;5082391;28;20248;-54
2021/12/02 05:11:14;;;;;;;1.02;0.82;;;4.80;99.90;;;;;;5080806;28;20221;-53
2021/12/02 05:13:41;;;;;;;3.40;1.48;;;4.80;99.90;;;;;;5081928;28;20265;-56
2021/12/02 05:16:08;;;;;;;1.02;0.93;;;4.80;99.90;;;;;;5083691;28;20210;-52
2021/12/02 05:18:36;;;;;;;1.67;0.80;;;4.70;99.90;;;;;;5083584;28;20228;-58
2021/12/02 05:21:03;;;;;;;0.60;0.52;;;4.70;99.90;;;;;;5074731;28;20217;-56
2021/12/02 05:23:30;;;;;;;1.95;1.25;;;4.70;99.90;;;;;;5068616;28;20203;-57
2021/12/02 05:25:58;;;;;;;1.20;0.77;;;4.70;99.90;;;;;;5067598;28;20224;-54
2021/12/02 05:28:25;;;;;;;4.68;1.17;;;4.70;99.90;;;;;;5063466;28;20197;-55
2021/12/02 05:30:53;;;;;;;0.65;0.65;;;4.60;99.90;;;;;;5062268;28;20226;-55
2021/12/02 05:33:20;;;;;;;0.60;0.60;;;4.60;99.90;;;;;;5062636;28;20265;-55
2021/12/02 05:35:48;;;;;;;0.98;0.57;;;4.60;99.90;;;;;;5062269;28;20445;-53
2021/12/02 05:38:15;;;;;;;0.95;0.85;;;4.60;99.90;;;;;;5062399;28;20320;-55
2021/12/02 05:40:43;;;;;;;0.80;0.80;;;4.60;99.90;;;;;;5062367;28;20230;-57
2021/12/02 05:43:10;;;;;;;0.85;0.77;;;4.60;99.90;;;;;;5062035;28;20199;-55
2021/12/02 05:45:37;;;;;;;4.50;2.35;;;4.60;99.90;;;;;;5066691;28;20265;-53
2021/12/02 05:48:04;;;;;;;6.53;4.00;;;4.60;99.90;;;;;;5075156;28;20198;-54
2021/12/02 05:50:32;;;;;;;1.65;0.95;;;4.50;99.90;;;;;;5078966;28;20229;-55
2021/12/02 05:52:59;;;;;;;3.97;1.60;;;4.50;99.90;;;;;;5083558;28;20564;-53
2021/12/02 05:55:27;;;;;;;1.67;1.13;;;4.50;99.90;;;;;;5087879;28;20212;-54
2021/12/02 05:57:54;;;;;;;2.33;0.98;;;4.50;99.90;;;;;;5081158;28;20210;-55
2021/12/02 06:00:21;;;;;;;0.90;0.90;;;4.40;99.90;;;;;;5080194;28;20229;-56
2021/12/02 06:02:49;;;;;;;2.72;1.13;;;4.50;99.90;;;;;;5081047;28;20220;-56
2021/12/02 06:05:19;;;;;;;1.42;1.00;;;4.40;99.90;;;;;;5081185;28;20392;-56
2021/12/02 06:07:52;;;;;;;1.65;1.02;;;4.50;99.90;;;;;;5079923;28;20209;-58
2021/12/02 06:10:20;;;;;;;1.02;0.90;;;4.50;99.90;;;;;;5081518;28;20221;-55
2021/12/02 06:12:47;;;;;;;1.27;1.17;;;4.50;99.90;;;;;;5083410;28;20246;-60
2021/12/02 06:15:15;;;;;;;0.65;0.65;;;4.50;99.90;;;;;;5083540;28;20201;-56
2021/12/02 06:17:43;;;;;;;4.97;1.02;;;4.50;99.90;;;;;;5082229;28;20201;-54
2021/12/02 06:20:17;;;;;;;0.70;0.45;;;4.50;99.90;;;;;;5079291;28;20240;-56
2021/12/02 06:22:45;;;;;;;1.65;1.25;;;4.40;99.90;;;;;;5074836;28;20198;-58
2021/12/02 06:27:41;;;;;;;1.40;0.98;;;4.40;99.90;;;;;;5080942;28;20196;-53
2021/12/02 06:30:09;;;;;;;2.28;1.75;;;4.40;99.90;;;;;;5082371;28;20259;-58
2021/12/02 06:32:37;;;;;;;3.95;1.77;;;4.50;99.90;;;;;;5081630;28;20227;-56
2021/12/02 06:35:07;;;;;;;1.65;1.15;;;4.50;99.90;;;;;;5081587;28;20515;-54
2021/12/02 06:37:35;;;;;;;1.02;0.85;;;4.50;99.90;;;;;;5081361;28;20206;-55
2021/12/02 06:40:04;;;;;;;1.55;0.82;;;4.40;99.90;;;;;;5080347;28;20230;-54
2021/12/02 06:42:31;;;;;;;2.67;1.00;;;4.40;99.90;;;;;;5074315;28;20201;-55
2021/12/02 06:44:59;;;;;;;3.80;0.95;;;4.40;99.90;;;;;;5079894;28;20389;-59
2021/12/02 06:47:31;;;;;;;2.42;1.27;;;4.40;99.90;;;;;;5075079;28;20223;-51
2021/12/02 06:50:01;;;;;;;7.15;1.65;;;4.40;99.90;;;;;;5071942;28;20201;-57
2021/12/02 06:52:29;;;;;;;1.88;1.48;;;4.40;99.90;;;;;;5072158;28;20216;-58
2021/12/02 06:54:56;;;;;;;2.78;1.42;;;4.40;99.90;;;;;;5080801;28;20231;-51
2021/12/02 06:57:23;;;;;;;1.27;1.17;;;4.40;99.90;;;;;;5080454;28;20274;-55
2021/12/02 06:59:50;;;;;;;2.55;1.35;;;4.40;99.90;;;;;;5080461;28;20225;-56
2021/12/02 07:02:18;;;;;;;5.55;2.78;;;4.50;99.90;;;;;;5080202;28;20193;-54
2021/12/02 07:04:48;;;;;;;1.30;1.20;;;4.50;99.90;;;;;;5080760;28;20249;-54
2021/12/02 07:07:16;;;;;;;1.52;0.70;;;4.70;99.90;;;;;;5079961;28;20504;-56
2021/12/02 07:09:44;;;;;;;1.90;1.05;;;4.90;99.90;;;;;;5080224;28;20294;-58
2021/12/02 07:12:12;;;;;;;3.85;1.02;;;4.90;99.90;;;;;;5080793;28;20256;-56
2021/12/02 07:14:45;;;;;;;2.60;1.45;;;5.00;99.90;;;;;;5080253;28;20202;-56
2021/12/02 07:17:12;;;;;;;0.90;0.90;;;5.10;99.90;;;;;;5080349;28;20199;-53
2021/12/02 07:19:40;;;;;;;0.70;0.70;;;5.30;99.90;;;;;;5079573;28;20351;-54
2021/12/02 07:22:07;;;;;;;1.30;1.25;;;5.30;99.90;;;;;;5079834;28;20217;-55
2021/12/02 07:24:35;;;;;;;3.40;2.20;;;5.50;99.90;;;;;;5080409;28;20423;-56
2021/12/02 07:27:06;;;;;;;2.83;1.40;;;5.50;99.90;;;;;;5080680;28;20231;-54
2021/12/02 07:29:33;;;;;;;2.72;1.27;;;5.60;99.90;;;;;;5079996;28;20267;-53
2021/12/02 07:32:04;;;;;;;3.45;2.22;;;5.60;99.90;;;;;;5088446;28;20233;-56
2021/12/02 07:34:37;;;;;;;3.05;1.58;;;5.70;99.90;;;;;;5086645;28;20202;-55
2021/12/02 07:37:04;;;;;;;3.80;0.95;;;5.70;99.90;;;;;;5080692;28;20214;-52
2021/12/02 07:39:31;;;;;;;3.92;1.30;;;5.70;99.90;;;;;;5079910;28;20425;-58
2021/12/02 07:42:18;;;;;;;4.45;1.80;;;5.80;99.90;;;;;;5071695;28;20202;-57
2021/12/02 07:44:45;;;;;;;3.65;2.92;;;5.80;99.90;;;;;;5080911;28;20287;-58
2021/12/02 07:47:13;;;;;;;0.80;0.80;;;5.80;99.90;;;;;;5080359;28;20202;-55
2021/12/02 07:49:40;;;;;;;1.50;1.13;;;5.70;99.90;;;;;;5080219;28;20271;-57
2021/12/02 07:52:08;;;;;;;5.20;1.65;;;5.90;99.90;;;;;;5079481;28;20203;-54
2021/12/02 07:54:39;;;;;;;2.05;1.17;;;5.90;99.90;;;;;;5079977;28;20202;-56
2021/12/02 07:57:10;;;;;;;1.73;1.40;;;5.90;99.90;;;;;;5062267;28;20262;-53
2021/12/02 07:59:39;;;;;;;3.92;1.27;;;6.00;99.90;;;;;;5078927;28;20225;-54
2021/12/02 08:02:13;;;;;;;3.13;1.42;;;6.10;99.90;;;;;;5062503;28;20217;-55
2021/12/02 08:04:40;;;;;;;4.13;2.33;;;6.10;99.90;;;;;;5079627;28;20492;-53
2021/12/02 08:07:08;;;;;;;2.90;1.52;;;6.10;99.90;;;;;;5080143;28;20482;-53
2021/12/02 08:09:35;;;;;;;3.88;1.58;;;6.00;99.90;;;;;;5061426;28;20198;-57
2021/12/02 08:12:04;;;;;;;2.17;1.05;;;6.10;99.90;;;;;;5079732;28;20226;-54
2021/12/02 08:14:31;;;;;;;3.70;1.20;;;6.10;99.90;;;;;;5079343;28;20202;-54
2021/12/02 08:16:59;;;;;;;2.45;1.73;;;6.00;99.90;;;;;;5080008;28;20272;-53
2021/12/02 08:19:26;;;;;;;1.80;1.10;;;6.00;99.90;;;;;;5077440;28;20293;-56
2021/12/02 08:21:54;;;;;;;3.47;1.90;;;6.20;99.90;;;;;;5071566;28;20222;-52
2021/12/02 08:24:23;;;;;;;2.95;1.13;;;6.40;99.90;;;;;;5079085;28;20267;-56
2021/12/02 08:26:52;;;;;;;1.85;1.40;;;6.50;99.90;;;;;;5073012;28;20199;-55
2021/12/02 08:29:20;;;;;;;2.22;1.35;;;6.50;99.90;;;;;;5079158;28;20198;-55
2021/12/02 08:31:48;;;;;;;3.70;1.27;;;6.40;99.90;;;;;;5079735;28;20226;-53
2021/12/02 08:34:17;;;;;;;1.42;1.33;;;6.40;99.90;;;;;;5084051;28;20260;-54
2021/12/02 08:36:53;;;;;;;1.90;1.42;;;6.20;99.90;;;;;;5080850;28;20207;-54
2021/12/02 08:39:27;;;;;;;2.08;1.10;;;6.00;99.90;;;;;;5083284;28;20210;-54
2021/12/02 08:41:55;;;;;;;2.60;1.10;;;5.90;99.90;;;;;;5081737;28;20479;-55
2021/12/02 08:44:24;;;;;;;1.75;1.00;;;5.80;99.90;;;;;;5075187;28;20213;-55
2021/12/02 08:46:53;;;;;;;3.20;0.95;;;5.80;99.90;;;;;;5083536;28;20434;-56
2021/12/02 08:49:21;;;;;;;2.90;1.27;;;5.60;99.90;;;;;;5083482;28;20195;-56
2021/12/02 08:51:49;;;;;;;2.13;1.05;;;5.50;99.90;;;;;;5091060;28;20225;-56
2021/12/02 08:54:16;;;;;;;0.93;0.93;;;5.50;99.90;;;;;;5089990;28;20198;-59
2021/12/02 08:56:43;;;;;;;1.00;0.95;;;5.50;99.90;;;;;;5092492;28;20435;-58
2021/12/02 08:59:10;;;;;;;0.90;0.90;;;5.50;99.90;;;;;;5088740;28;20198;-52
2021/12/02 09:01:37;;;;;;;1.75;1.02;;;5.50;99.90;;;;;;5083138;28;20241;-57
2021/12/02 09:04:05;;;;;;;2.00;1.33;;;5.50;99.90;;;;;;5083891;28;20201;-57
2021/12/02 09:06:32;;;;;;;3.13;2.28;;;5.60;99.90;;;;;;5087140;28;20201;-58
2021/12/02 09:09:00;;;;;;;0.80;0.80;;;5.60;99.90;;;;;;5089307;28;20198;-54
2021/12/02 09:11:29;;;;;;;1.50;0.80;;;5.70;99.90;;;;;;5089929;28;20223;-55
2021/12/02 09:13:58;;;;;;;2.20;0.95;;;5.80;99.90;;;;;;5086840;28;20248;-55
2021/12/02 09:16:26;;;;;;;1.98;1.40;;;5.80;99.90;;;;;;5086103;28;20489;-54
2021/12/02 09:18:54;;;;;;;1.35;0.73;;;5.90;99.90;;;;;;5082777;28;20209;-56
2021/12/02 09:21:22;;;;;;;1.27;0.70;;;5.90;99.90;;;;;;5082745;28;20409;-53
2021/12/02 09:23:49;;;;;;;1.33;1.13;;;5.90;99.90;;;;;;5065034;28;20204;-53
2021/12/02 09:26:17;;;;;;;3.58;1.42;;;6.00;99.90;;;;;;5082710;28;20266;-56
2021/12/02 09:28:52;;;;;;;2.08;1.33;;;6.00;99.90;;;;;;5082695;28;20206;-52
2021/12/02 09:31:20;;;;;;;3.35;2.10;;;6.10;99.90;;;;;;5081829;28;20389;-52
2021/12/02 09:33:48;;;;;;;1.27;1.17;;;6.20;99.90;;;;;;5082502;28;20398;-54
2021/12/02 09:36:16;;;;;;;5.47;1.35;;;6.30;99.90;;;;;;5082118;28;20258;-56
2021/12/02 09:38:44;;;;;;;7.68;1.10;;;6.60;99.90;;;;;;5082514;28;20207;-54
2021/12/02 09:41:12;;;;;;;1.63;0.93;;;7.00;99.90;;;;;;5082446;28;20276;-54
2021/12/02 09:43:40;;;;;;;1.60;1.50;;;7.40;99.90;;;;;;5082299;28;20530;-54
2021/12/02 09:46:07;;;;;;;6.03;2.28;;;7.70;99.90;;;;;;5082775;28;20199;-52
2021/12/02 09:48:34;;;;;;;2.42;1.88;;;7.70;99.90;;;;;;5084872;28;20203;-55
2021/12/02 09:54:18;;;;;;;1.30;1.10;;;7.90;99.90;;;;;;5085352;28;20210;-56
2021/12/02 09:56:51;;;;;;;1.73;0.95;;;8.10;99.90;;;;;;5090352;28;20195;-55
2021/12/02 09:59:47;;;;;;;2.15;1.10;;;7.90;99.90;;;;;;5089832;28;20373;-54
2021/12/02 10:02:12;;;;;;;0.95;0.63;;;7.60;99.90;;;;;;5088410;28;20276;-55
2021/12/02 10:04:50;;;;;;;1.25;0.70;;;7.20;99.90;;;;;;5070461;28;20258;-55
2021/12/02 10:07:34;;;;;;;1.95;1.20;;;7.00;99.90;;;;;;5088612;28;20195;-55
2021/12/02 10:10:11;;;;;;;0.82;0.80;;;7.00;99.90;;;;;;5084076;28;20543;-59
2021/12/02 10:12:51;;;;;;;2.83;1.00;;;7.10;99.90;;;;;;5080477;28;20306;-56
2021/12/02 10:15:19;;;;;;;4.57;1.00;;;7.10;99.90;;;;;;5082650;28;20206;-54
2021/12/02 10:17:50;;;;;;;0.95;0.82;;;7.30;99.90;;;;;;5082479;28;20207;-52
2021/12/02 10:20:37;;;;;;;2.15;1.60;;;7.40;99.90;;;;;;5082062;28;20264;-52
2021/12/02 10:23:37;;;;;;;3.70;1.73;;;7.40;99.90;;;;;;5061580;28;20261;-54
2021/12/02 10:26:06;;;;;;;1.30;0.75;;;7.40;99.90;;;;;;5061964;28;20567;-54
2021/12/02 10:28:42;;;;;;;2.47;1.13;;;7.50;99.90;;;;;;5071506;28;20424;-58
2021/12/02 10:31:11;;;;;;;2.70;1.45;;;7.70;99.90;;;;;;5081707;28;20264;-56
2021/12/02 10:33:49;;;;;;;2.63;0.80;;;7.80;99.90;;;;;;5081244;28;20532;-55
2021/12/02 10:36:40;;;;;;;1.48;1.30;;;8.00;99.90;;;;;;5081538;28;20198;-53
2021/12/02 10:39:10;;;;;;;1.60;1.50;;;8.20;99.90;;;;;;5081189;28;20207;-53
2021/12/02 10:41:42;;;;;;;2.10;0.88;;;8.30;99.90;;;;;;5081412;28;20246;-54
2021/12/02 10:44:24;;;;;;;5.32;1.30;;;8.30;99.90;;;;;;5075244;28;20196;-52
2021/12/02 10:47:00;;;;;;;1.40;1.17;;;8.30;99.90;;;;;;5077970;28;20199;-56
2021/12/02 10:49:39;;;;;;;2.72;1.20;;;8.30;99.90;;;;;;5080896;28;20190;-55
2021/12/02 10:52:10;;;;;;;2.55;1.05;;;8.20;99.90;;;;;;5066672;28;20269;-53
2021/12/02 10:54:42;;;;;;;3.53;1.65;;;8.00;99.90;;;;;;5072847;28;20211;-53
2021/12/02 10:57:19;;;;;;;1.88;0.80;;;7.50;99.90;;;;;;5076254;28;20215;-55
2021/12/02 10:59:51;;;;;;;0.90;0.90;;;7.30;99.90;;;;;;5080685;28;20525;-53
2021/12/02 11:02:29;;;;;;;1.85;1.70;;;7.10;99.90;;;;;;5080070;28;20194;-54
2021/12/02 11:05:00;;;;;;;2.75;1.15;;;6.90;99.90;;;;;;5080735;28;20233;-53
2021/12/02 11:07:31;;;;;;;1.00;0.98;;;6.80;99.90;;;;;;5080288;28;20240;-55
2021/12/02 11:10:15;;;;;;;1.95;1.17;;;6.80;99.90;;;;;;5080659;28;20199;-54
2021/12/02 11:12:48;;;;;;;1.15;0.70;;;6.70;99.90;;;;;;5080386;28;20217;-57
2021/12/02 11:15:20;;;;;;;1.30;1.20;;;6.70;99.90;;;;;;5080634;28;20545;-57
2021/12/02 11:17:52;;;;;;;1.17;1.00;;;6.70;99.90;;;;;;5080429;28;20194;-57
2021/12/02 11:20:33;;;;;;;3.88;1.95;;;6.70;99.90;;;;;;5062479;28;20233;-55
2021/12/02 11:23:20;;;;;;;2.90;1.15;;;6.60;99.90;;;;;;5080522;28;20198;-55
2021/12/02 11:26:10;;;;;;;5.32;0.98;;;6.60;99.90;;;;;;5080036;28;20256;-54
2021/12/02 11:28:40;;;;;;;1.65;1.00;;;6.50;99.90;;;;;;5080551;28;20195;-55
2021/12/02 11:31:17;;;;;;;1.45;1.20;;;6.50;99.90;;;;;;5079866;28;20227;-55
2021/12/02 11:33:47;;;;;;;2.65;1.13;;;6.50;99.90;;;;;;5080332;28;20218;-55
2021/12/02 11:36:23;;;;;;;2.20;1.17;;;6.50;99.90;;;;;;5079864;28;20264;-54
2021/12/02 11:38:57;;;;;;;2.88;2.40;;;6.40;99.90;;;;;;5076879;28;20543;-54
2021/12/02 11:41:26;;;;;;;3.22;1.45;;;6.40;99.90;;;;;;5084251;28;20323;-57
2021/12/02 11:43:54;;;;;;;1.50;0.80;;;6.40;99.90;;;;;;5079531;28;20196;-55
2021/12/02 11:46:22;;;;;;;3.40;1.08;;;6.40;99.90;;;;;;5060467;28;20564;-57
2021/12/02 11:48:50;;;;;;;1.25;1.10;;;6.40;99.90;;;;;;5074559;28;20393;-53
2021/12/02 11:51:20;;;;;;;3.00;1.10;;;6.40;99.90;;;;;;5079909;28;20431;-54
2021/12/02 11:53:47;;;;;;;2.28;0.93;;;6.30;99.90;;;;;;5077444;28;20203;-53
2021/12/02 11:56:21;;;;;;;4.40;1.35;;;6.30;99.90;;;;;;5077059;28;20401;-57
2021/12/02 11:58:50;;;;;;;2.45;1.30;;;6.40;99.90;;;;;;5077534;28;20198;-54
2021/12/02 12:01:21;;;;;;;1.75;1.20;;;6.30;99.90;;;;;;5079714;28;20421;-55
2021/12/02 12:03:53;;;;;;;4.97;1.42;;;6.40;99.90;;;;;;5072023;28;20187;-52
2021/12/02 12:06:28;;;;;;;1.67;0.85;;;6.40;99.90;;;;;;5079783;28;20546;-54
2021/12/02 12:08:58;;;;;;;1.67;1.52;;;6.40;99.90;;;;;;5079971;28;20568;-56
2021/12/02 12:11:34;;;;;;;1.00;1.00;;;6.30;99.90;;;;;;5079330;28;20218;-56
2021/12/02 12:14:07;;;;;;;4.03;1.40;;;6.40;99.90;;;;;;5079546;28;20194;-54
2021/12/02 12:16:46;;;;;;;1.38;1.25;;;6.30;99.90;;;;;;5079184;28;20209;-57
2021/12/02 12:19:27;;;;;;;1.50;1.33;;;6.40;99.90;;;;;;5080040;28;20206;-53
2021/12/02 12:22:05;;;;;;;1.23;1.13;;;6.40;99.90;;;;;;5062417;28;20541;-54
2021/12/02 12:24:44;;;;;;;1.48;1.00;;;6.30;99.90;;;;;;5080054;28;20229;-56
2021/12/02 12:27:18;;;;;;;1.95;1.65;;;6.30;99.90;;;;;;5085336;28;20453;-55
2021/12/02 12:29:48;;;;;;;0.90;0.90;;;6.30;99.90;;;;;;5084735;28;20374;-52
2021/12/02 12:32:38;;;;;;;3.20;1.60;;;6.20;99.90;;;;;;5079279;28;20222;-56
2021/12/02 12:35:12;;;;;;;1.70;0.80;;;6.20;99.90;;;;;;5078649;28;20256;-54
2021/12/02 12:40:43;;;;;;;2.00;1.25;;;6.20;99.90;;;;;;5067241;28;20246;-54
2021/12/02 12:43:10;;;;;;;2.42;1.77;;;6.20;99.90;;;;;;5027030;28;20370;-54
2021/12/02 12:45:42;;;;;;;2.92;1.50;;;6.10;99.90;;;;;;5073210;28;20195;-57
2021/12/02 12:48:25;;;;;;;2.10;1.02;;;6.10;99.90;;;;;;5074524;28;20512;-54
2021/12/02 12:50:53;;;;;;;3.90;1.45;;;6.20;99.90;;;;;;5062086;28;20272;-53
2021/12/02 12:53:29;;;;;;;4.40;1.67;;;6.10;99.90;;;;;;5068065;28;20206;-57
2021/12/02 12:55:56;;;;;;;1.60;1.23;;;6.10;99.90;;;;;;5079852;28;20252;-53
2021/12/02 12:58:29;;;;;;;2.33;0.93;;;6.10;99.90;;;;;;5079545;28;20259;-56
2021/12/02 13:01:00;;;;;;;3.95;1.65;;;6.00;99.90;;;;;;5079689;28;20307;-56
2021/12/02 13:03:41;;;;;;;7.07;1.27;;;6.00;99.90;;;;;;5079212;28;20278;-53
2021/12/02 13:06:20;;;;;;;1.67;1.30;;;5.90;99.90;;;;;;5079378;28;20455;-53
2021/12/02 13:08:54;;;;;;;1.45;1.10;;;5.80;99.90;;;;;;5068679;28;20534;-53
2021/12/02 13:11:25;;;;;;;4.53;1.42;;;5.70;99.90;;;;;;5050954;28;20267;-51
2021/12/02 13:13:55;;;;;;;2.28;1.38;;;5.70;99.90;;;;;;5068797;28;20211;-56
2021/12/02 13:16:23;;;;;;;1.42;1.33;;;5.70;99.90;;;;;;5063096;28;20206;-53
2021/12/02 13:18:59;;;;;;;3.80;1.70;;;5.70;99.90;;;;;;5070649;28;20288;-52
2021/12/02 13:21:35;;;;;;;3.03;1.58;;;5.70;99.90;;;;;;5067277;28;20219;-52
2021/12/02 13:24:10;;;;;;;1.35;1.25;;;5.60;99.90;;;;;;5071164;28;20211;-52
2021/12/02 13:26:43;;;;;;;2.55;1.40;;;5.50;99.90;;;;;;5081984;28;20206;-58
2021/12/02 13:29:18;;;;;;;2.85;1.48;;;5.50;99.90;;;;;;5078261;28;20232;-56
2021/12/02 13:32:10;;;;;;;3.60;1.90;;;5.50;99.90;;;;;;5074393;28;20429;-53
2021/12/02 13:34:37;;;;;;;2.20;1.90;;;5.60;99.90;;;;;;5082306;28;20202;-57
2021/12/02 13:37:09;;;;;;;1.85;1.40;;;5.50;99.90;;;;;;5081795;28;20496;-57
2021/12/02 13:39:42;;;;;;;1.98;1.88;;;5.50;99.90;;;;;;5082475;28;20216;-53
2021/12/02 13:42:15;;;;;;;2.38;1.63;;;5.40;99.90;;;;;;5082663;28;20225;-54
2021/12/02 13:44:46;;;;;;;1.63;1.10;;;5.40;99.90;;;;;;5082116;28;20221;-58
2021/12/02 13:47:22;;;;;;;2.22;1.35;;;5.20;99.90;;;;;;5083050;28;20268;-55